NCAR-RAP Real-Time Weather Data

Output produced by METARs form (23 February 2020  02:36 UTC)
found at http://weather.rap.ucar.edu/surface/
 
KBTR 230153Z 06003KT 10SM CLR 09/03 A3032 RMK AO2 SLP267 T00890028
KBTR 230053Z 00000KT 10SM CLR 11/02 A3032 RMK AO2 SLP268 T01110022
KBTR 222353Z 00000KT 5SM HZ CLR 13/01 A3033 RMK AO2 SLP271 T01280006 10156 20122 55008
KBTR 222253Z 00000KT 10SM CLR 15/M01 A3033 RMK AO2 SLP270 T01501011
KBTR 222153Z 00000KT 10SM CLR 14/M01 A3034 RMK AO2 SLP276 T01441011
KBTR 222053Z 00000KT 10SM CLR 14/M01 A3036 RMK AO2 SLP280 T01391006 56027
KBTR 221953Z 24003KT 10SM CLR 14/M01 A3038 RMK AO2 SLP287 T01391006
KBTR 221853Z 25005KT 10SM CLR 13/00 A3041 RMK AO2 SLP297 T01330000
KBTR 221753Z 08004KT 10SM CLR 12/M01 A3044 RMK AO2 PRESFR SLP307 T01221011 10128 21006 58012
KBTR 221653Z VRB04KT 10SM CLR 11/M01 A3046 RMK AO2 SLP314 T01061006
KBTR 221553Z VRB04KT 10SM CLR 09/M01 A3049 RMK AO2 SLP325 T00891011
KBTR 221453Z 08008KT 10SM CLR 06/M01 A3047 RMK AO2 SLP319 T00561011 58002
KBTR 221353Z 02004KT 10SM CLR 03/M01 A3051 RMK AO2 SLP330 T00281011
KBTR 221253Z 06003KT 10SM CLR 00/M02 A3047 RMK AO2 SLP318 T00001022
KBTR 221153Z 01003KT 10SM CLR 00/M02 A3048 RMK AO2 SLP321 T00001022 10022 21006 53004
KBTR 221053Z AUTO 06003KT 10SM CLR 00/M02 A3046 RMK AO2 SLP314 T00001022
KBTR 220953Z AUTO 03004KT 10SM CLR 01/M02 A3047 RMK AO2 SLP318 T00061022
KBTR 220853Z AUTO 03004KT 10SM CLR 01/M02 A3047 RMK AO2 SLP317 T00061022 58007
KBTR 220753Z AUTO 04004KT 10SM CLR 01/M02 A3048 RMK AO2 SLP320 T00111022
KBTR 220653Z AUTO 36004KT 10SM CLR 02/M02 A3050 RMK AO2 SLP329 T00171022
KBTR 220553Z AUTO 02005KT 10SM CLR 02/M02 A3049 RMK AO2 SLP324 T00221017 10089 20022 401330022 58009
KBTR 220453Z 01004KT 10SM CLR 03/M02 A3050 RMK AO2 SLP329 T00331017
KBTR 220353Z 02007KT 10SM CLR 04/M02 A3051 RMK AO2 SLP331 T00441017
KBTR 220253Z 36006KT 10SM CLR 05/M01 A3052 RMK AO2 SLP333 T00501011 50013
KBTR 220153Z 35005KT 10SM CLR 06/M01 A3052 RMK AO2 SLP334 T00611011
KBTR 220053Z VRB04KT 10SM CLR 07/M02 A3049 RMK AO2 SLP325 T00721017
KBTR 212353Z 34007KT 10SM CLR 09/M01 A3048 RMK AO2 SLP320 T00941006 10133 20094 55001
KBTR 212253Z 02010KT 10SM CLR 12/M03 A3046 RMK AO2 SLP314 T01171028
KBTR 212153Z 01008KT 10SM CLR 13/M03 A3047 RMK AO2 SLP316 T01281033
KBTR 212053Z 35011KT 10SM CLR 12/M04 A3048 RMK AO2 SLP320 T01221039 56027
KBTR 211953Z 01008KT 330V030 10SM CLR 12/M02 A3049 RMK AO2 SLP324 T01221022
KBTR 211853Z 36008G17KT 10SM CLR 11/M02 A3053 RMK AO2 SLP337 T01111022
KBTR 211753Z 36012KT 10SM CLR 10/M02 A3056 RMK AO2 SLP347 T01001017 10100 20022 58007
KBTR 211653Z 34010G16KT 10SM CLR 08/M02 A3058 RMK AO2 SLP357 T00831017
KBTR 211553Z 02011KT 10SM CLR 07/M01 A3059 RMK AO2 SLP358 T00721011
KBTR 211453Z 01012G18KT 10SM CLR 05/M02 A3058 RMK AO2 SLP356 T00501017 51024
KBTR 211353Z 02009G19KT 10SM CLR 03/M01 A3056 RMK AO2 SLP349 T00331011
KBTR 211253Z 01008KT 10SM CLR 03/M01 A3053 RMK AO2 SLP339 T00281011
KBTR 211153Z 01008KT 10SM CLR 03/M01 A3051 RMK AO2 SLP331 70059 T00281011 10072 20028 53012
KBTR 211053Z 01009KT 10SM CLR 03/M01 A3050 RMK AO2 SLP327 T00331006
KBTR 210953Z AUTO 01009G15KT 10SM CLR 04/00 A3048 RMK AO2 SLP321 T00390000
KBTR 210853Z AUTO 01009KT 10SM CLR 04/00 A3048 RMK AO2 SLP320 T00440000 51009
KBTR 210753Z AUTO 01011G20KT 10SM CLR 06/00 A3047 RMK AO2 SLP319 T00560000
KBTR 210653Z AUTO 02012G20KT 10SM SCT026 SCT030 07/01 A3046 RMK AO2 PK WND 02027/0611 SLP312 T00670011
KBTR 210553Z AUTO 36012G19KT 10SM OVC019 07/03 A3045 RMK AO2 SLP310 60000 T00720028 10078 20072 401330072 50009
KBTR 210453Z 35012G19KT 10SM OVC021 07/03 A3045 RMK AO2 SLP312 T00720033
KBTR 210353Z 35012G18KT 330V030 10SM OVC014 07/04 A3044 RMK AO2 SLP306 T00720039
KBTR 210253Z 01011G19KT 10SM OVC014 08/04 A3042 RMK AO2 PK WND 34031/0217 SLP301 60000 T00780039 53031